createdAt,value
2022-09-22T00:04:08.543Z,70.93
2022-09-22T00:11:17.053Z,70.77
2022-09-22T00:18:18.623Z,70.82
2022-09-22T00:25:20.407Z,70.66
2022-09-22T00:32:22.044Z,71.15
2022-09-22T00:39:23.671Z,71.64
2022-09-22T00:46:26.611Z,72.21
2022-09-22T00:53:28.217Z,72.56
2022-09-22T01:00:29.846Z,73.04
2022-09-22T01:07:31.561Z,73.38
2022-09-22T01:14:56.815Z,73.83
2022-09-22T01:22:53.624Z,74.36
2022-09-22T01:30:10.057Z,74.83
2022-09-22T01:37:23.067Z,75.36
2022-09-22T01:44:27.148Z,75.49
2022-09-22T01:51:39.497Z,75.98
2022-09-22T01:58:44.553Z,76.19
2022-09-22T02:05:52.345Z,76.64
2022-09-22T02:12:55.389Z,76.93
2022-09-22T02:19:56.917Z,76.90
2022-09-22T02:27:00.302Z,77.37
2022-09-22T02:34:01.916Z,77.18
2022-09-22T02:41:10.926Z,77.31
2022-09-22T02:48:15.486Z,77.69
2022-09-22T02:55:17.088Z,77.96
2022-09-22T03:02:18.622Z,78.07
2022-09-22T03:09:20.158Z,78.37
2022-09-22T03:16:21.768Z,78.76
2022-09-22T03:23:23.363Z,78.77
2022-09-22T03:30:25.023Z,79.09
2022-09-22T03:37:26.559Z,79.05
2022-09-22T03:44:28.123Z,79.18
2022-09-22T03:51:30.425Z,79.38
2022-09-22T03:58:31.991Z,79.84
2022-09-22T04:05:33.590Z,80.45
2022-09-22T04:12:35.170Z,80.85
2022-09-22T04:19:36.714Z,80.92
2022-09-22T04:26:44.477Z,80.93
2022-09-22T04:33:58.107Z,80.67
2022-09-22T04:41:01.310Z,80.46
2022-09-22T04:48:02.877Z,80.79
2022-09-22T04:55:04.750Z,80.98
2022-09-22T05:02:06.349Z,80.98
2022-09-22T05:09:07.919Z,81.16
2022-09-22T05:16:09.533Z,81.17
2022-09-22T05:23:11.649Z,81.16
2022-09-22T05:30:13.498Z,81.23
2022-09-22T05:37:15.059Z,81.67
2022-09-22T05:44:16.873Z,81.86
2022-09-22T05:51:18.431Z,82.76
2022-09-22T05:58:20.483Z,83.27
2022-09-22T06:05:22.073Z,83.65
2022-09-22T06:12:23.688Z,83.74
2022-09-22T06:19:26.038Z,83.48
2022-09-22T06:26:27.739Z,83.32
2022-09-22T06:33:29.376Z,82.61
2022-09-22T06:40:32.222Z,82.02
2022-09-22T06:47:33.850Z,81.58
2022-09-22T06:54:35.393Z,81.28
2022-09-22T07:01:37.311Z,81.00
2022-09-22T07:08:39.512Z,80.65
2022-09-22T07:15:41.067Z,79.23
2022-09-22T07:22:42.613Z,75.89
2022-09-22T07:29:47.721Z,73.92
2022-09-22T07:36:49.321Z,69.94
2022-09-22T07:43:52.691Z,67.04
2022-09-22T07:50:54.789Z,63.39
2022-09-22T07:57:59.996Z,61.44
2022-09-22T08:05:03.239Z,59.58
2022-09-22T08:12:05.227Z,57.13
2022-09-22T08:19:12.429Z,55.69
2022-09-22T08:26:13.996Z,52.61
2022-09-22T08:33:15.610Z,50.58
2022-09-22T08:40:21.112Z,49.16
2022-09-22T08:47:44.807Z,47.06
2022-09-22T08:54:46.389Z,45.94
2022-09-22T09:02:11.260Z,43.43
2022-09-22T09:09:33.840Z,41.38
2022-09-22T09:17:06.707Z,39.58
2022-09-22T09:31:38.255Z,35.66
2022-09-22T09:38:44.553Z,35.77
2022-09-22T09:46:24.691Z,36.52
2022-09-22T09:53:40.620Z,34.88
2022-09-22T10:00:59.157Z,33.75
2022-09-22T10:08:02.063Z,32.13
2022-09-22T10:15:03.834Z,32.02
2022-09-22T10:22:25.095Z,32.24
2022-09-22T10:29:27.751Z,31.93
2022-09-22T10:36:30.693Z,33.54
2022-09-22T10:43:47.318Z,33.71
2022-09-22T10:51:22.788Z,30.14
2022-09-22T10:58:27.246Z,28.77
2022-09-22T11:06:16.800Z,31.81
2022-09-22T11:13:27.574Z,31.76
2022-09-22T11:20:41.858Z,30.58
2022-09-22T11:28:04.598Z,31.22
2022-09-22T11:35:31.026Z,28.64
2022-09-22T11:42:38.609Z,25.83
2022-09-22T11:50:00.442Z,23.82
2022-09-22T11:57:06.652Z,22.71
2022-09-22T12:04:26.907Z,21.92
2022-09-22T12:11:28.454Z,20.88
2022-09-22T12:18:35.171Z,20.57
2022-09-22T12:25:54.318Z,19.73
2022-09-22T12:32:56.330Z,20.99
2022-09-22T12:40:24.132Z,20.14
2022-09-22T12:47:34.348Z,19.42
2022-09-22T12:54:37.207Z,21.68
2022-09-22T13:01:39.279Z,22.23
2022-09-22T13:08:40.757Z,22.26
2022-09-22T13:15:54.143Z,22.38
2022-09-22T13:23:05.053Z,23.10
2022-09-22T13:30:12.512Z,23.17
2022-09-22T13:37:16.655Z,22.31
2022-09-22T13:44:21.670Z,22.40
2022-09-22T13:51:24.899Z,21.37
2022-09-22T13:58:41.084Z,20.66
2022-09-22T14:05:53.225Z,21.29
2022-09-22T14:12:55.481Z,21.76
2022-09-22T14:20:00.755Z,22.47
2022-09-22T14:27:06.461Z,20.79
2022-09-22T14:34:08.801Z,20.08
2022-09-22T14:41:27.350Z,21.62
2022-09-22T14:48:33.269Z,22.52
2022-09-22T14:55:42.931Z,24.28
2022-09-22T15:02:49.468Z,24.77
2022-09-22T15:09:52.897Z,25.24
2022-09-22T15:17:14.423Z,26.04
2022-09-22T15:24:17.825Z,26.34
2022-09-22T15:31:24.575Z,27.73
2022-09-22T15:38:27.470Z,29.74
2022-09-22T15:45:30.081Z,29.77
2022-09-22T15:52:31.647Z,30.22
2022-09-22T15:59:33.406Z,29.73
2022-09-22T16:06:34.962Z,30.20
2022-09-22T16:13:36.544Z,31.79
2022-09-22T16:20:38.165Z,30.35
2022-09-22T16:27:39.698Z,30.10
2022-09-22T16:34:41.270Z,30.34
2022-09-22T16:41:45.793Z,31.63
2022-09-22T16:48:47.345Z,32.37
2022-09-22T16:55:48.892Z,33.17
2022-09-22T17:02:50.450Z,34.40
2022-09-22T17:09:52.052Z,35.28
2022-09-22T17:16:55.289Z,36.06
2022-09-22T17:24:00.460Z,37.07
2022-09-22T17:31:02.585Z,38.70
2022-09-22T17:38:04.130Z,39.31
2022-09-22T17:45:07.702Z,39.86
2022-09-22T17:52:27.950Z,40.95
2022-09-22T17:59:31.094Z,41.44
2022-09-22T18:06:32.636Z,42.03
2022-09-22T18:13:39.027Z,43.18
2022-09-22T18:20:40.843Z,44.04
2022-09-22T18:27:42.404Z,44.26
2022-09-22T18:34:44.023Z,44.79
2022-09-22T18:41:45.608Z,45.57
2022-09-22T18:48:57.333Z,46.27
2022-09-22T18:56:08.524Z,47.09
2022-09-22T19:03:10.080Z,47.69
2022-09-22T19:10:13.312Z,49.30
2022-09-22T19:17:17.190Z,49.75
2022-09-22T19:24:18.919Z,50.87
2022-09-22T19:31:20.567Z,51.28
2022-09-22T19:38:22.200Z,51.44
2022-09-22T19:45:24.939Z,51.67
2022-09-22T19:52:26.458Z,52.20
2022-09-22T19:59:28.055Z,52.49
2022-09-22T20:06:29.603Z,53.02
2022-09-22T20:13:49.542Z,53.53
2022-09-22T20:20:51.542Z,54.10
2022-09-22T20:27:53.110Z,54.36
2022-09-22T20:34:55.375Z,54.51
2022-09-22T20:41:56.933Z,55.21
2022-09-22T20:48:58.710Z,55.85
2022-09-22T20:56:04.711Z,56.30
2022-09-22T21:03:06.347Z,59.21
2022-09-22T21:10:27.231Z,61.30
2022-09-22T21:17:29.669Z,59.41
2022-09-22T21:24:32.471Z,59.24
2022-09-22T21:31:34.829Z,59.36
2022-09-22T21:38:37.002Z,59.73
2022-09-22T21:45:38.564Z,59.73
2022-09-22T21:52:40.131Z,60.11
2022-09-22T21:59:41.729Z,60.58
2022-09-22T22:06:46.069Z,61.03
2022-09-22T22:13:48.224Z,61.26
2022-09-22T22:21:05.768Z,61.99
2022-09-22T22:28:08.549Z,62.54
2022-09-22T22:35:11.596Z,62.91
2022-09-22T22:42:13.301Z,63.27
2022-09-22T22:49:14.959Z,63.68
2022-09-22T22:56:17.891Z,63.79
2022-09-22T23:03:19.459Z,64.07
2022-09-22T23:10:21.395Z,64.44
2022-09-22T23:17:22.943Z,64.66
2022-09-22T23:24:24.558Z,64.75
2022-09-22T23:31:26.263Z,64.82
2022-09-22T23:38:29.295Z,65.15
2022-09-22T23:45:30.867Z,65.65
2022-09-22T23:52:32.412Z,66.04
2022-09-22T23:59:33.981Z,66.64
